sensor_id;sensor_type;location;lat;lon;timestamp;P1;durP1;ratioP1;P2;durP2;ratioP2
44722;SDS011;30451;48.638;10.624;2023-07-22T00:00:25;1.52;;;1.10;;
44722;SDS011;30451;48.638;10.624;2023-07-22T00:02:51;1.83;;;1.10;;
44722;SDS011;30451;48.638;10.624;2023-07-22T00:05:17;1.75;;;0.98;;
44722;SDS011;30451;48.638;10.624;2023-07-22T00:07:49;1.08;;;0.90;;
44722;SDS011;30451;48.638;10.624;2023-07-22T00:10:14;1.48;;;1.10;;
44722;SDS011;30451;48.638;10.624;2023-07-22T00:12:40;1.30;;;0.98;;
44722;SDS011;30451;48.638;10.624;2023-07-22T00:15:06;1.88;;;1.00;;
44722;SDS011;30451;48.638;10.624;2023-07-22T00:17:33;1.20;;;0.90;;
44722;SDS011;30451;48.638;10.624;2023-07-22T00:19:58;1.23;;;0.90;;
44722;SDS011;30451;48.638;10.624;2023-07-22T00:22:25;1.27;;;1.00;;
44722;SDS011;30451;48.638;10.624;2023-07-22T00:24:52;1.35;;;1.00;;
44722;SDS011;30451;48.638;10.624;2023-07-22T00:27:17;1.48;;;1.08;;
44722;SDS011;30451;48.638;10.624;2023-07-22T00:29:43;2.28;;;1.00;;
44722;SDS011;30451;48.638;10.624;2023-07-22T00:32:09;1.50;;;1.00;;
44722;SDS011;30451;48.638;10.624;2023-07-22T00:34:35;1.65;;;1.20;;
44722;SDS011;30451;48.638;10.624;2023-07-22T00:37:01;1.45;;;1.00;;
44722;SDS011;30451;48.638;10.624;2023-07-22T00:39:27;1.40;;;1.00;;
44722;SDS011;30451;48.638;10.624;2023-07-22T00:41:53;1.50;;;0.98;;
44722;SDS011;30451;48.638;10.624;2023-07-22T00:44:18;1.83;;;1.10;;
44722;SDS011;30451;48.638;10.624;2023-07-22T00:46:44;1.50;;;1.10;;
44722;SDS011;30451;48.638;10.624;2023-07-22T00:49:10;1.48;;;0.98;;
44722;SDS011;30451;48.638;10.624;2023-07-22T00:51:38;2.10;;;0.98;;
44722;SDS011;30451;48.638;10.624;2023-07-22T00:54:03;2.08;;;1.00;;
44722;SDS011;30451;48.638;10.624;2023-07-22T00:56:30;1.52;;;1.08;;
44722;SDS011;30451;48.638;10.624;2023-07-22T00:59:00;1.55;;;1.00;;
44722;SDS011;30451;48.638;10.624;2023-07-22T01:01:26;1.60;;;1.10;;
44722;SDS011;30451;48.638;10.624;2023-07-22T01:03:52;1.65;;;1.00;;
44722;SDS011;30451;48.638;10.624;2023-07-22T01:06:18;1.50;;;1.05;;
44722;SDS011;30451;48.638;10.624;2023-07-22T01:08:45;1.45;;;1.00;;
44722;SDS011;30451;48.638;10.624;2023-07-22T01:11:11;1.38;;;1.10;;
44722;SDS011;30451;48.638;10.624;2023-07-22T01:13:38;1.70;;;1.10;;
44722;SDS011;30451;48.638;10.624;2023-07-22T01:16:05;1.00;;;0.90;;
44722;SDS011;30451;48.638;10.624;2023-07-22T01:18:31;1.70;;;1.10;;
44722;SDS011;30451;48.638;10.624;2023-07-22T01:20:58;1.10;;;0.90;;
44722;SDS011;30451;48.638;10.624;2023-07-22T01:23:24;1.20;;;0.90;;
44722;SDS011;30451;48.638;10.624;2023-07-22T01:25:50;1.40;;;0.93;;
44722;SDS011;30451;48.638;10.624;2023-07-22T01:28:16;1.70;;;1.00;;
44722;SDS011;30451;48.638;10.624;2023-07-22T01:30:42;1.42;;;1.00;;
44722;SDS011;30451;48.638;10.624;2023-07-22T01:33:07;1.08;;;0.90;;
44722;SDS011;30451;48.638;10.624;2023-07-22T01:35:33;1.30;;;1.00;;
44722;SDS011;30451;48.638;10.624;2023-07-22T01:37:59;1.50;;;0.98;;
44722;SDS011;30451;48.638;10.624;2023-07-22T01:40:25;2.33;;;1.00;;
44722;SDS011;30451;48.638;10.624;2023-07-22T01:42:50;1.13;;;0.98;;
44722;SDS011;30451;48.638;10.624;2023-07-22T01:45:16;1.00;;;0.90;;
44722;SDS011;30451;48.638;10.624;2023-07-22T01:47:42;1.45;;;1.00;;
44722;SDS011;30451;48.638;10.624;2023-07-22T01:50:08;1.52;;;1.10;;
44722;SDS011;30451;48.638;10.624;2023-07-22T01:52:34;1.35;;;1.00;;
44722;SDS011;30451;48.638;10.624;2023-07-22T01:55:00;1.52;;;0.85;;
44722;SDS011;30451;48.638;10.624;2023-07-22T01:57:27;1.10;;;0.90;;
44722;SDS011;30451;48.638;10.624;2023-07-22T01:59:52;0.77;;;0.70;;
44722;SDS011;30451;48.638;10.624;2023-07-22T02:02:18;1.40;;;1.00;;
44722;SDS011;30451;48.638;10.624;2023-07-22T02:04:45;1.10;;;0.88;;
44722;SDS011;30451;48.638;10.624;2023-07-22T02:07:10;1.30;;;0.95;;
44722;SDS011;30451;48.638;10.624;2023-07-22T02:09:36;1.00;;;0.90;;
44722;SDS011;30451;48.638;10.624;2023-07-22T02:12:02;1.55;;;1.00;;
44722;SDS011;30451;48.638;10.624;2023-07-22T02:14:27;1.35;;;1.00;;
44722;SDS011;30451;48.638;10.624;2023-07-22T02:16:53;1.30;;;1.00;;
44722;SDS011;30451;48.638;10.624;2023-07-22T02:19:19;1.05;;;0.90;;
44722;SDS011;30451;48.638;10.624;2023-07-22T02:21:44;1.05;;;0.93;;
44722;SDS011;30451;48.638;10.624;2023-07-22T02:24:10;0.93;;;0.82;;
44722;SDS011;30451;48.638;10.624;2023-07-22T02:26:36;1.05;;;0.85;;
44722;SDS011;30451;48.638;10.624;2023-07-22T02:29:01;1.40;;;1.00;;
44722;SDS011;30451;48.638;10.624;2023-07-22T02:31:27;1.13;;;0.80;;
44722;SDS011;30451;48.638;10.624;2023-07-22T02:33:53;1.20;;;0.90;;
44722;SDS011;30451;48.638;10.624;2023-07-22T02:36:18;1.67;;;1.10;;
44722;SDS011;30451;48.638;10.624;2023-07-22T02:38:44;1.13;;;0.93;;
44722;SDS011;30451;48.638;10.624;2023-07-22T02:41:10;1.73;;;1.00;;
44722;SDS011;30451;48.638;10.624;2023-07-22T02:43:35;1.45;;;1.00;;
44722;SDS011;30451;48.638;10.624;2023-07-22T02:46:02;2.08;;;1.00;;
44722;SDS011;30451;48.638;10.624;2023-07-22T02:48:29;1.17;;;0.90;;
44722;SDS011;30451;48.638;10.624;2023-07-22T02:51:01;1.27;;;1.00;;
44722;SDS011;30451;48.638;10.624;2023-07-22T02:53:31;1.20;;;0.98;;
44722;SDS011;30451;48.638;10.624;2023-07-22T02:55:58;1.00;;;0.82;;
44722;SDS011;30451;48.638;10.624;2023-07-22T02:58:24;1.48;;;1.05;;
44722;SDS011;30451;48.638;10.624;2023-07-22T03:00:50;1.25;;;0.98;;
44722;SDS011;30451;48.638;10.624;2023-07-22T03:03:15;1.50;;;0.80;;
44722;SDS011;30451;48.638;10.624;2023-07-22T03:05:41;1.63;;;1.00;;
44722;SDS011;30451;48.638;10.624;2023-07-22T03:08:06;1.23;;;0.93;;
44722;SDS011;30451;48.638;10.624;2023-07-22T03:10:32;1.05;;;0.80;;
44722;SDS011;30451;48.638;10.624;2023-07-22T03:12:58;1.20;;;0.90;;
44722;SDS011;30451;48.638;10.624;2023-07-22T03:15:24;1.17;;;0.98;;
44722;SDS011;30451;48.638;10.624;2023-07-22T03:17:54;1.13;;;0.90;;
44722;SDS011;30451;48.638;10.624;2023-07-22T03:20:24;1.00;;;0.90;;
44722;SDS011;30451;48.638;10.624;2023-07-22T03:22:51;0.70;;;0.70;;
44722;SDS011;30451;48.638;10.624;2023-07-22T03:25:17;1.20;;;1.00;;
44722;SDS011;30451;48.638;10.624;2023-07-22T03:27:45;1.33;;;0.90;;
44722;SDS011;30451;48.638;10.624;2023-07-22T03:30:12;0.95;;;0.82;;
44722;SDS011;30451;48.638;10.624;2023-07-22T03:32:40;0.90;;;0.80;;
44722;SDS011;30451;48.638;10.624;2023-07-22T03:35:07;1.20;;;0.90;;
44722;SDS011;30451;48.638;10.624;2023-07-22T03:37:37;1.30;;;1.00;;
44722;SDS011;30451;48.638;10.624;2023-07-22T03:40:03;1.05;;;0.88;;
44722;SDS011;30451;48.638;10.624;2023-07-22T03:42:36;1.00;;;0.90;;
44722;SDS011;30451;48.638;10.624;2023-07-22T03:45:02;1.02;;;0.90;;
44722;SDS011;30451;48.638;10.624;2023-07-22T03:47:28;1.40;;;1.00;;
44722;SDS011;30451;48.638;10.624;2023-07-22T03:49:54;0.82;;;0.73;;
44722;SDS011;30451;48.638;10.624;2023-07-22T03:52:20;1.00;;;0.88;;
44722;SDS011;30451;48.638;10.624;2023-07-22T03:54:46;1.23;;;1.00;;
44722;SDS011;30451;48.638;10.624;2023-07-22T03:57:12;1.23;;;0.90;;
44722;SDS011;30451;48.638;10.624;2023-07-22T03:59:38;1.23;;;1.00;;
44722;SDS011;30451;48.638;10.624;2023-07-22T04:02:04;1.10;;;0.90;;
44722;SDS011;30451;48.638;10.624;2023-07-22T04:04:30;0.88;;;0.70;;
44722;SDS011;30451;48.638;10.624;2023-07-22T04:06:56;1.30;;;0.90;;
44722;SDS011;30451;48.638;10.624;2023-07-22T04:09:21;1.00;;;0.90;;
44722;SDS011;30451;48.638;10.624;2023-07-22T04:11:47;0.88;;;0.80;;
44722;SDS011;30451;48.638;10.624;2023-07-22T04:14:13;1.10;;;0.90;;
44722;SDS011;30451;48.638;10.624;2023-07-22T04:16:39;1.48;;;1.00;;
44722;SDS011;30451;48.638;10.624;2023-07-22T04:19:04;0.90;;;0.80;;
44722;SDS011;30451;48.638;10.624;2023-07-22T04:21:31;1.52;;;1.00;;
44722;SDS011;30451;48.638;10.624;2023-07-22T04:23:56;2.65;;;1.20;;
44722;SDS011;30451;48.638;10.624;2023-07-22T04:26:22;1.80;;;1.30;;
44722;SDS011;30451;48.638;10.624;2023-07-22T04:28:48;1.75;;;1.20;;
44722;SDS011;30451;48.638;10.624;2023-07-22T04:31:13;3.70;;;1.30;;
44722;SDS011;30451;48.638;10.624;2023-07-22T04:33:39;2.17;;;1.42;;
44722;SDS011;30451;48.638;10.624;2023-07-22T04:36:06;2.28;;;1.40;;
44722;SDS011;30451;48.638;10.624;2023-07-22T04:38:32;2.67;;;1.52;;
44722;SDS011;30451;48.638;10.624;2023-07-22T04:40:58;3.50;;;1.50;;
44722;SDS011;30451;48.638;10.624;2023-07-22T04:43:25;2.38;;;1.40;;
44722;SDS011;30451;48.638;10.624;2023-07-22T04:45:51;2.88;;;1.40;;
44722;SDS011;30451;48.638;10.624;2023-07-22T04:48:18;2.53;;;1.55;;
44722;SDS011;30451;48.638;10.624;2023-07-22T04:50:45;1.65;;;1.15;;
44722;SDS011;30451;48.638;10.624;2023-07-22T04:53:11;1.85;;;1.20;;
44722;SDS011;30451;48.638;10.624;2023-07-22T04:55:38;2.55;;;1.40;;
44722;SDS011;30451;48.638;10.624;2023-07-22T04:58:05;2.47;;;1.70;;
44722;SDS011;30451;48.638;10.624;2023-07-22T05:00:30;1.98;;;1.48;;
44722;SDS011;30451;48.638;10.624;2023-07-22T05:02:56;3.83;;;1.70;;
44722;SDS011;30451;48.638;10.624;2023-07-22T05:05:22;2.22;;;1.40;;
44722;SDS011;30451;48.638;10.624;2023-07-22T05:07:48;2.33;;;1.58;;
44722;SDS011;30451;48.638;10.624;2023-07-22T05:10:14;2.90;;;1.55;;
44722;SDS011;30451;48.638;10.624;2023-07-22T05:12:41;3.17;;;1.70;;
44722;SDS011;30451;48.638;10.624;2023-07-22T05:15:07;3.42;;;1.77;;
44722;SDS011;30451;48.638;10.624;2023-07-22T05:17:35;4.57;;;1.80;;
44722;SDS011;30451;48.638;10.624;2023-07-22T05:20:01;3.25;;;1.70;;
44722;SDS011;30451;48.638;10.624;2023-07-22T05:22:26;4.28;;;1.70;;
44722;SDS011;30451;48.638;10.624;2023-07-22T05:24:52;3.83;;;1.73;;
44722;SDS011;30451;48.638;10.624;2023-07-22T05:27:17;4.07;;;1.90;;
44722;SDS011;30451;48.638;10.624;2023-07-22T05:29:43;4.68;;;1.85;;
44722;SDS011;30451;48.638;10.624;2023-07-22T05:32:10;3.67;;;1.90;;
44722;SDS011;30451;48.638;10.624;2023-07-22T05:34:35;3.03;;;1.60;;
44722;SDS011;30451;48.638;10.624;2023-07-22T05:37:01;3.85;;;1.75;;
44722;SDS011;30451;48.638;10.624;2023-07-22T05:39:27;3.30;;;1.80;;
44722;SDS011;30451;48.638;10.624;2023-07-22T05:41:53;3.83;;;1.70;;
44722;SDS011;30451;48.638;10.624;2023-07-22T05:44:18;3.40;;;1.58;;
44722;SDS011;30451;48.638;10.624;2023-07-22T05:46:44;4.07;;;1.70;;
44722;SDS011;30451;48.638;10.624;2023-07-22T05:49:10;2.45;;;1.52;;
44722;SDS011;30451;48.638;10.624;2023-07-22T05:51:36;2.80;;;1.55;;
44722;SDS011;30451;48.638;10.624;2023-07-22T05:54:02;3.17;;;1.83;;
44722;SDS011;30451;48.638;10.624;2023-07-22T05:56:28;2.53;;;1.95;;
44722;SDS011;30451;48.638;10.624;2023-07-22T05:58:53;2.00;;;1.30;;
44722;SDS011;30451;48.638;10.624;2023-07-22T06:01:19;2.95;;;1.35;;
44722;SDS011;30451;48.638;10.624;2023-07-22T06:03:45;2.20;;;1.60;;
44722;SDS011;30451;48.638;10.624;2023-07-22T06:06:10;2.75;;;1.70;;
44722;SDS011;30451;48.638;10.624;2023-07-22T06:08:36;2.72;;;1.52;;
44722;SDS011;30451;48.638;10.624;2023-07-22T06:11:01;2.30;;;1.50;;
44722;SDS011;30451;48.638;10.624;2023-07-22T06:13:27;2.92;;;1.90;;
44722;SDS011;30451;48.638;10.624;2023-07-22T06:15:53;2.95;;;1.70;;
44722;SDS011;30451;48.638;10.624;2023-07-22T06:18:18;2.50;;;1.30;;
44722;SDS011;30451;48.638;10.624;2023-07-22T06:20:44;2.75;;;1.50;;
44722;SDS011;30451;48.638;10.624;2023-07-22T06:23:10;2.70;;;1.50;;
44722;SDS011;30451;48.638;10.624;2023-07-22T06:25:36;2.45;;;1.70;;
44722;SDS011;30451;48.638;10.624;2023-07-22T06:28:02;2.70;;;1.67;;
44722;SDS011;30451;48.638;10.624;2023-07-22T06:30:27;2.63;;;1.70;;
44722;SDS011;30451;48.638;10.624;2023-07-22T06:32:53;3.15;;;1.60;;
44722;SDS011;30451;48.638;10.624;2023-07-22T06:35:19;2.55;;;1.50;;
44722;SDS011;30451;48.638;10.624;2023-07-22T06:37:45;4.40;;;1.52;;
44722;SDS011;30451;48.638;10.624;2023-07-22T06:40:10;3.13;;;1.73;;
44722;SDS011;30451;48.638;10.624;2023-07-22T06:42:36;2.60;;;1.67;;
44722;SDS011;30451;48.638;10.624;2023-07-22T06:45:02;2.72;;;1.80;;
44722;SDS011;30451;48.638;10.624;2023-07-22T06:47:28;3.10;;;2.03;;
44722;SDS011;30451;48.638;10.624;2023-07-22T06:49:53;3.17;;;1.80;;
44722;SDS011;30451;48.638;10.624;2023-07-22T06:52:19;2.42;;;1.42;;
44722;SDS011;30451;48.638;10.624;2023-07-22T06:54:45;2.85;;;1.73;;
44722;SDS011;30451;48.638;10.624;2023-07-22T06:57:11;3.10;;;1.60;;
44722;SDS011;30451;48.638;10.624;2023-07-22T06:59:36;2.63;;;1.73;;
44722;SDS011;30451;48.638;10.624;2023-07-22T07:02:05;2.40;;;1.50;;
44722;SDS011;30451;48.638;10.624;2023-07-22T07:04:30;2.47;;;1.48;;
44722;SDS011;30451;48.638;10.624;2023-07-22T07:06:56;2.10;;;1.50;;
44722;SDS011;30451;48.638;10.624;2023-07-22T07:09:22;2.40;;;1.80;;
44722;SDS011;30451;48.638;10.624;2023-07-22T07:11:47;2.88;;;1.58;;
44722;SDS011;30451;48.638;10.624;2023-07-22T07:14:13;2.13;;;1.40;;
44722;SDS011;30451;48.638;10.624;2023-07-22T07:16:39;4.18;;;2.10;;
44722;SDS011;30451;48.638;10.624;2023-07-22T07:19:04;3.25;;;1.70;;
44722;SDS011;30451;48.638;10.624;2023-07-22T07:21:30;2.53;;;1.50;;
44722;SDS011;30451;48.638;10.624;2023-07-22T07:23:56;2.20;;;1.45;;
44722;SDS011;30451;48.638;10.624;2023-07-22T07:26:22;2.58;;;1.42;;
44722;SDS011;30451;48.638;10.624;2023-07-22T07:28:48;2.65;;;1.60;;
44722;SDS011;30451;48.638;10.624;2023-07-22T07:31:16;2.78;;;1.70;;
44722;SDS011;30451;48.638;10.624;2023-07-22T07:33:42;2.85;;;1.70;;
44722;SDS011;30451;48.638;10.624;2023-07-22T07:36:07;2.90;;;1.50;;
44722;SDS011;30451;48.638;10.624;2023-07-22T07:38:33;2.60;;;1.55;;
44722;SDS011;30451;48.638;10.624;2023-07-22T07:40:59;4.00;;;1.50;;
44722;SDS011;30451;48.638;10.624;2023-07-22T07:43:27;2.20;;;1.40;;
44722;SDS011;30451;48.638;10.624;2023-07-22T07:46:11;2.05;;;1.33;;
44722;SDS011;30451;48.638;10.624;2023-07-22T07:48:38;2.42;;;1.27;;
44722;SDS011;30451;48.638;10.624;2023-07-22T07:51:04;2.10;;;1.40;;
44722;SDS011;30451;48.638;10.624;2023-07-22T07:53:29;2.63;;;1.42;;
44722;SDS011;30451;48.638;10.624;2023-07-22T07:55:55;1.73;;;1.15;;
44722;SDS011;30451;48.638;10.624;2023-07-22T07:58:21;1.65;;;1.13;;
44722;SDS011;30451;48.638;10.624;2023-07-22T08:00:46;1.98;;;1.10;;
44722;SDS011;30451;48.638;10.624;2023-07-22T08:03:12;1.88;;;1.10;;
44722;SDS011;30451;48.638;10.624;2023-07-22T08:05:37;1.63;;;1.15;;
44722;SDS011;30451;48.638;10.624;2023-07-22T08:08:04;2.33;;;1.25;;
44722;SDS011;30451;48.638;10.624;2023-07-22T08:10:30;1.58;;;1.10;;
44722;SDS011;30451;48.638;10.624;2023-07-22T08:12:55;1.60;;;1.10;;
44722;SDS011;30451;48.638;10.624;2023-07-22T08:15:21;2.28;;;1.40;;
44722;SDS011;30451;48.638;10.624;2023-07-22T08:17:46;1.73;;;1.10;;
44722;SDS011;30451;48.638;10.624;2023-07-22T08:20:12;1.70;;;1.13;;
44722;SDS011;30451;48.638;10.624;2023-07-22T08:22:38;1.65;;;1.08;;
44722;SDS011;30451;48.638;10.624;2023-07-22T08:25:03;1.60;;;1.10;;
44722;SDS011;30451;48.638;10.624;2023-07-22T08:27:29;2.22;;;1.27;;
44722;SDS011;30451;48.638;10.624;2023-07-22T08:29:55;1.55;;;1.10;;
44722;SDS011;30451;48.638;10.624;2023-07-22T08:32:21;1.52;;;1.10;;
44722;SDS011;30451;48.638;10.624;2023-07-22T08:34:46;1.60;;;1.10;;
44722;SDS011;30451;48.638;10.624;2023-07-22T08:37:12;1.98;;;1.10;;
44722;SDS011;30451;48.638;10.624;2023-07-22T08:39:37;1.20;;;1.00;;
44722;SDS011;30451;48.638;10.624;2023-07-22T08:42:03;1.67;;;1.20;;
44722;SDS011;30451;48.638;10.624;2023-07-22T08:44:31;2.00;;;1.20;;
44722;SDS011;30451;48.638;10.624;2023-07-22T08:47:00;1.55;;;1.10;;
44722;SDS011;30451;48.638;10.624;2023-07-22T08:49:29;1.55;;;1.05;;
44722;SDS011;30451;48.638;10.624;2023-07-22T08:51:56;1.63;;;1.15;;
44722;SDS011;30451;48.638;10.624;2023-07-22T08:54:23;1.08;;;0.90;;
44722;SDS011;30451;48.638;10.624;2023-07-22T08:56:49;2.05;;;1.10;;
44722;SDS011;30451;48.638;10.624;2023-07-22T08:59:17;1.75;;;1.10;;
44722;SDS011;30451;48.638;10.624;2023-07-22T09:01:43;1.10;;;1.00;;
44722;SDS011;30451;48.638;10.624;2023-07-22T09:04:10;1.33;;;0.90;;
44722;SDS011;30451;48.638;10.624;2023-07-22T09:06:36;1.58;;;1.00;;
44722;SDS011;30451;48.638;10.624;2023-07-22T09:09:02;1.85;;;1.10;;
44722;SDS011;30451;48.638;10.624;2023-07-22T09:11:32;1.92;;;1.20;;
44722;SDS011;30451;48.638;10.624;2023-07-22T09:13:59;1.38;;;1.00;;
44722;SDS011;30451;48.638;10.624;2023-07-22T09:16:26;1.00;;;0.90;;
44722;SDS011;30451;48.638;10.624;2023-07-22T09:18:57;1.73;;;1.10;;
44722;SDS011;30451;48.638;10.624;2023-07-22T09:21:23;1.40;;;0.95;;
44722;SDS011;30451;48.638;10.624;2023-07-22T09:23:48;1.33;;;1.00;;
44722;SDS011;30451;48.638;10.624;2023-07-22T09:26:15;1.63;;;1.00;;
44722;SDS011;30451;48.638;10.624;2023-07-22T09:31:13;1.70;;;0.98;;
44722;SDS011;30451;48.638;10.624;2023-07-22T09:33:39;1.90;;;1.10;;
44722;SDS011;30451;48.638;10.624;2023-07-22T09:36:04;1.40;;;1.10;;
44722;SDS011;30451;48.638;10.624;2023-07-22T09:38:30;1.73;;;1.10;;
44722;SDS011;30451;48.638;10.624;2023-07-22T09:40:55;1.60;;;1.08;;
44722;SDS011;30451;48.638;10.624;2023-07-22T09:43:22;1.83;;;1.10;;
44722;SDS011;30451;48.638;10.624;2023-07-22T09:45:48;1.60;;;1.10;;
44722;SDS011;30451;48.638;10.624;2023-07-22T09:48:14;1.48;;;1.05;;
44722;SDS011;30451;48.638;10.624;2023-07-22T09:50:40;1.98;;;1.10;;
44722;SDS011;30451;48.638;10.624;2023-07-22T09:53:06;1.48;;;1.00;;
44722;SDS011;30451;48.638;10.624;2023-07-22T09:55:32;1.85;;;1.30;;
44722;SDS011;30451;48.638;10.624;2023-07-22T09:58:00;1.40;;;0.95;;
44722;SDS011;30451;48.638;10.624;2023-07-22T10:00:30;1.50;;;1.00;;
44722;SDS011;30451;48.638;10.624;2023-07-22T10:02:58;1.52;;;0.90;;
44722;SDS011;30451;48.638;10.624;2023-07-22T10:05:26;1.48;;;1.00;;
44722;SDS011;30451;48.638;10.624;2023-07-22T10:07:58;1.55;;;1.00;;
44722;SDS011;30451;48.638;10.624;2023-07-22T10:10:28;1.02;;;0.88;;
44722;SDS011;30451;48.638;10.624;2023-07-22T10:12:57;1.38;;;0.93;;
44722;SDS011;30451;48.638;10.624;2023-07-22T10:15:24;1.30;;;0.90;;
44722;SDS011;30451;48.638;10.624;2023-07-22T10:17:54;1.67;;;1.00;;
44722;SDS011;30451;48.638;10.624;2023-07-22T10:20:21;1.88;;;1.00;;
44722;SDS011;30451;48.638;10.624;2023-07-22T10:22:48;1.33;;;0.80;;
44722;SDS011;30451;48.638;10.624;2023-07-22T10:25:15;1.80;;;1.00;;
44722;SDS011;30451;48.638;10.624;2023-07-22T10:27:42;1.88;;;1.00;;
44722;SDS011;30451;48.638;10.624;2023-07-22T10:30:09;1.55;;;1.13;;
44722;SDS011;30451;48.638;10.624;2023-07-22T10:32:40;1.30;;;1.00;;
44722;SDS011;30451;48.638;10.624;2023-07-22T10:35:10;1.00;;;0.80;;
44722;SDS011;30451;48.638;10.624;2023-07-22T10:37:37;1.50;;;1.00;;
44722;SDS011;30451;48.638;10.624;2023-07-22T10:42:55;1.77;;;1.10;;
44722;SDS011;30451;48.638;10.624;2023-07-22T10:45:31;1.90;;;1.20;;
44722;SDS011;30451;48.638;10.624;2023-07-22T10:50:44;2.92;;;1.10;;
44722;SDS011;30451;48.638;10.624;2023-07-22T10:53:27;1.70;;;1.20;;
44722;SDS011;30451;48.638;10.624;2023-07-22T11:07:00;2.00;;;1.23;;
44722;SDS011;30451;48.638;10.624;2023-07-22T11:12:06;1.45;;;1.00;;
44722;SDS011;30451;48.638;10.624;2023-07-22T11:17:15;1.58;;;0.90;;
44722;SDS011;30451;48.638;10.624;2023-07-22T11:19:42;1.27;;;1.00;;
44722;SDS011;30451;48.638;10.624;2023-07-22T11:22:10;1.70;;;1.00;;
44722;SDS011;30451;48.638;10.624;2023-07-22T11:24:35;1.00;;;0.90;;
44722;SDS011;30451;48.638;10.624;2023-07-22T11:27:05;1.77;;;0.90;;
44722;SDS011;30451;48.638;10.624;2023-07-22T11:29:32;1.13;;;0.90;;
44722;SDS011;30451;48.638;10.624;2023-07-22T11:31:58;1.02;;;0.90;;
44722;SDS011;30451;48.638;10.624;2023-07-22T11:34:24;1.15;;;1.00;;
44722;SDS011;30451;48.638;10.624;2023-07-22T11:36:51;1.30;;;1.02;;
44722;SDS011;30451;48.638;10.624;2023-07-22T11:39:18;1.15;;;0.93;;
44722;SDS011;30451;48.638;10.624;2023-07-22T11:41:46;1.75;;;1.10;;
44722;SDS011;30451;48.638;10.624;2023-07-22T11:44:13;1.50;;;0.90;;
44722;SDS011;30451;48.638;10.624;2023-07-22T11:49:34;2.00;;;0.95;;
44722;SDS011;30451;48.638;10.624;2023-07-22T11:54:34;2.00;;;1.00;;
44722;SDS011;30451;48.638;10.624;2023-07-22T11:59:43;1.67;;;1.17;;
44722;SDS011;30451;48.638;10.624;2023-07-22T12:02:13;1.48;;;1.10;;
44722;SDS011;30451;48.638;10.624;2023-07-22T12:04:39;1.40;;;1.10;;
44722;SDS011;30451;48.638;10.624;2023-07-22T12:07:05;2.03;;;1.00;;
44722;SDS011;30451;48.638;10.624;2023-07-22T12:09:31;1.85;;;1.05;;
44722;SDS011;30451;48.638;10.624;2023-07-22T12:11:57;3.13;;;1.10;;
44722;SDS011;30451;48.638;10.624;2023-07-22T12:14:24;1.80;;;1.30;;
44722;SDS011;30451;48.638;10.624;2023-07-22T12:16:58;1.63;;;1.27;;
44722;SDS011;30451;48.638;10.624;2023-07-22T12:19:24;1.92;;;1.10;;
44722;SDS011;30451;48.638;10.624;2023-07-22T12:21:52;1.60;;;1.10;;
44722;SDS011;30451;48.638;10.624;2023-07-22T12:24:17;1.75;;;1.02;;
44722;SDS011;30451;48.638;10.624;2023-07-22T12:26:43;2.88;;;1.30;;
44722;SDS011;30451;48.638;10.624;2023-07-22T12:29:09;1.35;;;1.00;;
44722;SDS011;30451;48.638;10.624;2023-07-22T12:31:34;1.83;;;1.27;;
44722;SDS011;30451;48.638;10.624;2023-07-22T12:34:00;1.80;;;1.10;;
44722;SDS011;30451;48.638;10.624;2023-07-22T12:36:26;1.85;;;1.20;;
44722;SDS011;30451;48.638;10.624;2023-07-22T12:38:51;2.10;;;1.00;;
44722;SDS011;30451;48.638;10.624;2023-07-22T12:41:17;1.40;;;1.00;;
44722;SDS011;30451;48.638;10.624;2023-07-22T12:43:42;1.67;;;1.10;;
44722;SDS011;30451;48.638;10.624;2023-07-22T12:46:09;1.58;;;1.10;;
44722;SDS011;30451;48.638;10.624;2023-07-22T12:48:34;1.35;;;0.85;;
44722;SDS011;30451;48.638;10.624;2023-07-22T12:51:00;1.17;;;0.90;;
44722;SDS011;30451;48.638;10.624;2023-07-22T12:53:26;1.15;;;0.90;;
44722;SDS011;30451;48.638;10.624;2023-07-22T12:55:51;1.67;;;1.00;;
44722;SDS011;30451;48.638;10.624;2023-07-22T12:58:17;1.00;;;0.90;;
44722;SDS011;30451;48.638;10.624;2023-07-22T13:00:43;1.30;;;0.90;;
44722;SDS011;30451;48.638;10.624;2023-07-22T13:03:08;1.08;;;0.90;;
44722;SDS011;30451;48.638;10.624;2023-07-22T13:05:34;1.27;;;0.90;;
44722;SDS011;30451;48.638;10.624;2023-07-22T13:07:59;1.17;;;0.90;;
44722;SDS011;30451;48.638;10.624;2023-07-22T13:10:26;0.90;;;0.80;;
44722;SDS011;30451;48.638;10.624;2023-07-22T13:12:53;1.00;;;0.80;;
44722;SDS011;30451;48.638;10.624;2023-07-22T13:15:19;2.35;;;0.95;;
44722;SDS011;30451;48.638;10.624;2023-07-22T13:17:45;2.22;;;0.90;;
44722;SDS011;30451;48.638;10.624;2023-07-22T13:20:11;1.38;;;0.90;;
44722;SDS011;30451;48.638;10.624;2023-07-22T13:22:39;1.20;;;0.90;;
44722;SDS011;30451;48.638;10.624;2023-07-22T13:25:05;2.40;;;0.93;;
44722;SDS011;30451;48.638;10.624;2023-07-22T13:27:31;2.55;;;1.00;;
44722;SDS011;30451;48.638;10.624;2023-07-22T13:29:57;1.13;;;0.80;;
44722;SDS011;30451;48.638;10.624;2023-07-22T13:32:23;1.05;;;0.80;;
44722;SDS011;30451;48.638;10.624;2023-07-22T13:34:49;1.15;;;1.00;;
44722;SDS011;30451;48.638;10.624;2023-07-22T13:37:14;1.23;;;0.90;;
44722;SDS011;30451;48.638;10.624;2023-07-22T13:39:40;1.10;;;0.80;;
44722;SDS011;30451;48.638;10.624;2023-07-22T13:42:06;1.00;;;0.80;;
44722;SDS011;30451;48.638;10.624;2023-07-22T13:44:32;1.48;;;0.95;;
44722;SDS011;30451;48.638;10.624;2023-07-22T13:46:59;1.20;;;0.90;;
44722;SDS011;30451;48.638;10.624;2023-07-22T13:49:25;1.27;;;0.90;;
44722;SDS011;30451;48.638;10.624;2023-07-22T13:51:50;0.70;;;0.70;;
44722;SDS011;30451;48.638;10.624;2023-07-22T13:54:16;1.52;;;0.93;;
44722;SDS011;30451;48.638;10.624;2023-07-22T13:56:43;1.63;;;0.98;;
44722;SDS011;30451;48.638;10.624;2023-07-22T13:59:08;1.27;;;0.90;;
44722;SDS011;30451;48.638;10.624;2023-07-22T14:01:34;1.27;;;0.90;;
44722;SDS011;30451;48.638;10.624;2023-07-22T14:04:00;1.15;;;0.85;;
44722;SDS011;30451;48.638;10.624;2023-07-22T14:06:25;1.38;;;0.95;;
44722;SDS011;30451;48.638;10.624;2023-07-22T14:08:51;1.45;;;0.90;;
44722;SDS011;30451;48.638;10.624;2023-07-22T14:11:18;0.85;;;0.80;;
44722;SDS011;30451;48.638;10.624;2023-07-22T14:13:44;0.93;;;0.82;;
44722;SDS011;30451;48.638;10.624;2023-07-22T14:16:10;1.20;;;0.90;;
44722;SDS011;30451;48.638;10.624;2023-07-22T14:18:36;1.83;;;1.05;;
44722;SDS011;30451;48.638;10.624;2023-07-22T14:21:02;1.20;;;0.90;;
44722;SDS011;30451;48.638;10.624;2023-07-22T14:23:27;1.50;;;1.00;;
44722;SDS011;30451;48.638;10.624;2023-07-22T14:25:53;1.70;;;1.17;;
44722;SDS011;30451;48.638;10.624;2023-07-22T14:28:19;1.60;;;0.90;;
44722;SDS011;30451;48.638;10.624;2023-07-22T14:30:45;1.00;;;0.90;;
44722;SDS011;30451;48.638;10.624;2023-07-22T14:33:10;1.00;;;0.90;;
44722;SDS011;30451;48.638;10.624;2023-07-22T14:35:36;1.50;;;0.90;;
44722;SDS011;30451;48.638;10.624;2023-07-22T14:38:01;1.13;;;0.88;;
44722;SDS011;30451;48.638;10.624;2023-07-22T14:40:27;1.20;;;0.90;;
44722;SDS011;30451;48.638;10.624;2023-07-22T14:42:53;1.25;;;1.00;;
44722;SDS011;30451;48.638;10.624;2023-07-22T14:45:19;1.20;;;0.90;;
44722;SDS011;30451;48.638;10.624;2023-07-22T14:47:45;2.35;;;1.00;;
44722;SDS011;30451;48.638;10.624;2023-07-22T14:50:10;1.00;;;0.80;;
44722;SDS011;30451;48.638;10.624;2023-07-22T14:52:36;1.20;;;0.90;;
44722;SDS011;30451;48.638;10.624;2023-07-22T14:55:02;0.90;;;0.80;;
44722;SDS011;30451;48.638;10.624;2023-07-22T14:57:27;0.90;;;0.80;;
44722;SDS011;30451;48.638;10.624;2023-07-22T14:59:55;1.20;;;0.90;;